createdAt,value
2023-04-06T00:01:21.147Z,24.80
2023-04-06T00:03:51.008Z,18.50
2023-04-06T00:06:19.975Z,24.50
2023-04-06T00:08:48.963Z,28.90
2023-04-06T00:11:18.122Z,27.30
2023-04-06T00:13:47.352Z,20.30
2023-04-06T00:16:16.252Z,22.10
2023-04-06T00:18:44.674Z,38.40
2023-04-06T00:21:14.354Z,28.70
2023-04-06T00:23:42.860Z,22.30
2023-04-06T00:26:11.858Z,13.10
2023-04-06T00:28:41.211Z,12.50
2023-04-06T00:31:09.515Z,18.90
2023-04-06T00:33:38.602Z,16.10
2023-04-06T00:36:07.215Z,22.80
2023-04-06T00:38:36.003Z,19.00
2023-04-06T00:41:05.082Z,11.40
2023-04-06T00:43:34.677Z,12.20
2023-04-06T00:46:03.112Z,16.40
2023-04-06T00:51:06.159Z,19.10
2023-04-06T00:53:35.006Z,17.90
2023-04-06T00:56:04.306Z,12.70
2023-04-06T00:58:41.732Z,16.40
2023-04-06T01:01:10.525Z,17.10
2023-04-06T01:03:43.395Z,18.00
2023-04-06T01:06:13.530Z,21.10
2023-04-06T01:08:42.936Z,23.50
2023-04-06T01:11:19.161Z,19.60
2023-04-06T01:13:47.960Z,20.00
2023-04-06T01:16:25.463Z,24.50
2023-04-06T01:19:14.504Z,17.90
2023-04-06T01:21:50.590Z,15.00
2023-04-06T01:24:41.955Z,16.90
2023-04-06T01:27:29.277Z,17.50
2023-04-06T01:30:18.512Z,24.20
2023-04-06T01:32:51.370Z,15.70
2023-04-06T01:35:27.316Z,21.60
2023-04-06T01:38:05.348Z,16.20
2023-04-06T01:40:35.655Z,18.70
2023-04-06T01:43:04.022Z,18.20
2023-04-06T01:45:36.960Z,15.20
2023-04-06T01:48:14.294Z,20.70
2023-04-06T01:50:43.802Z,18.10
2023-04-06T01:53:13.119Z,25.70
2023-04-06T01:55:42.936Z,22.90
2023-04-06T01:58:24.916Z,20.00
2023-04-06T02:00:53.917Z,21.20
2023-04-06T02:03:24.124Z,18.30
2023-04-06T02:06:00.137Z,22.40
2023-04-06T02:08:34.929Z,23.00
2023-04-06T02:11:03.687Z,22.30
2023-04-06T02:13:35.982Z,23.40
2023-04-06T02:16:05.084Z,22.50
2023-04-06T02:18:36.936Z,22.50
2023-04-06T02:21:05.762Z,30.80
2023-04-06T02:23:34.168Z,21.00
2023-04-06T02:26:02.544Z,20.30
2023-04-06T02:28:35.768Z,18.00
2023-04-06T02:31:04.319Z,15.80
2023-04-06T02:33:33.750Z,19.10
2023-04-06T02:36:02.533Z,18.10
2023-04-06T02:38:31.607Z,20.00
2023-04-06T02:41:01.725Z,18.60
2023-04-06T02:43:31.446Z,22.40
2023-04-06T02:46:15.680Z,16.70
2023-04-06T02:48:45.648Z,14.10
2023-04-06T02:51:16.218Z,15.40
2023-04-06T02:53:49.004Z,13.70
2023-04-06T02:56:18.025Z,15.30
2023-04-06T02:58:49.750Z,14.70
2023-04-06T03:01:18.502Z,17.20
2023-04-06T03:03:48.975Z,16.40
2023-04-06T03:08:57.184Z,14.20
2023-04-06T03:11:27.840Z,14.00
2023-04-06T03:13:56.525Z,13.60
2023-04-06T03:16:29.615Z,13.00
2023-04-06T03:18:59.583Z,11.10
2023-04-06T03:22:47.844Z,15.00
2023-04-06T03:25:17.979Z,13.50
2023-04-06T03:27:46.457Z,13.60
2023-04-06T03:30:20.062Z,10.90
2023-04-06T03:32:50.121Z,9.00
2023-04-06T03:35:19.615Z,12.00
2023-04-06T03:37:48.893Z,9.30
2023-04-06T03:40:17.266Z,7.20
2023-04-06T03:42:45.486Z,11.70
2023-04-06T03:45:18.379Z,10.30
2023-04-06T03:47:51.084Z,11.30
2023-04-06T03:50:21.509Z,7.30
2023-04-06T03:52:51.948Z,11.60
2023-04-06T03:55:21.034Z,9.30
2023-04-06T03:57:49.330Z,9.80
2023-04-06T04:00:19.037Z,13.10
2023-04-06T04:02:47.538Z,10.20
2023-04-06T04:05:16.033Z,8.20
2023-04-06T04:07:44.838Z,10.20
2023-04-06T04:10:14.810Z,11.50
2023-04-06T04:12:43.558Z,9.10
2023-04-06T04:15:16.513Z,10.00
2023-04-06T04:18:01.394Z,9.40
2023-04-06T04:20:32.587Z,7.50
2023-04-06T04:23:07.357Z,7.40
2023-04-06T04:25:37.966Z,6.70
2023-04-06T04:28:06.197Z,9.20
2023-04-06T04:30:34.395Z,10.70
2023-04-06T04:33:04.003Z,12.50
2023-04-06T04:35:32.758Z,10.80
2023-04-06T04:38:01.524Z,11.20
2023-04-06T04:40:30.300Z,11.30
2023-04-06T04:43:12.566Z,10.90
2023-04-06T04:45:42.958Z,12.70
2023-04-06T04:48:21.096Z,14.60
2023-04-06T04:50:56.528Z,14.60
2023-04-06T04:53:28.087Z,10.10
2023-04-06T04:56:00.382Z,9.70
2023-04-06T04:58:32.134Z,9.00
2023-04-06T05:01:01.615Z,9.20
2023-04-06T05:03:31.213Z,8.60
2023-04-06T05:06:03.129Z,8.10
2023-04-06T05:08:34.725Z,7.90
2023-04-06T05:11:03.676Z,8.40
2023-04-06T05:13:36.582Z,9.60
2023-04-06T05:16:09.850Z,7.90
2023-04-06T05:18:38.246Z,7.60
2023-04-06T05:21:07.323Z,7.60
2023-04-06T05:23:42.897Z,9.40
2023-04-06T05:26:11.186Z,8.70
2023-04-06T05:28:40.858Z,13.10
2023-04-06T05:31:12.925Z,11.80
2023-04-06T05:33:47.529Z,10.30
2023-04-06T05:36:20.939Z,11.30
2023-04-06T05:38:54.036Z,9.90
2023-04-06T05:41:38.265Z,16.10
2023-04-06T05:44:09.676Z,12.50
2023-04-06T05:46:38.707Z,13.00
2023-04-06T05:49:07.490Z,11.70
2023-04-06T05:51:37.060Z,11.60
2023-04-06T05:54:06.036Z,11.20
2023-04-06T05:56:34.356Z,11.50
2023-04-06T05:59:03.328Z,11.60
2023-04-06T06:01:33.634Z,10.20
2023-04-06T06:04:03.260Z,12.60
2023-04-06T06:06:33.721Z,9.90
2023-04-06T06:09:13.128Z,10.20
2023-04-06T06:11:47.406Z,11.30
2023-04-06T06:14:18.296Z,13.90
2023-04-06T06:16:50.107Z,11.30
2023-04-06T06:19:18.704Z,8.90
2023-04-06T06:21:47.591Z,9.60
2023-04-06T06:24:20.847Z,9.80
2023-04-06T06:26:50.281Z,10.30
2023-04-06T06:29:19.604Z,8.90
2023-04-06T06:31:48.932Z,10.30
2023-04-06T06:34:20.154Z,12.00
2023-04-06T06:36:52.975Z,9.70
2023-04-06T06:39:22.341Z,10.90
2023-04-06T06:41:51.655Z,12.60
2023-04-06T06:44:23.747Z,11.40
2023-04-06T06:46:56.891Z,10.20
2023-04-06T06:49:25.416Z,11.30
2023-04-06T06:51:53.825Z,8.20
2023-04-06T06:54:22.472Z,9.00
2023-04-06T06:56:51.149Z,9.60
2023-04-06T06:59:23.270Z,8.70
2023-04-06T07:01:52.744Z,8.90
2023-04-06T07:04:21.911Z,9.00
2023-04-06T07:06:53.969Z,10.10
2023-04-06T07:09:23.048Z,10.80
2023-04-06T07:11:51.380Z,9.10
2023-04-06T07:14:21.892Z,10.60
2023-04-06T07:16:52.164Z,8.20
2023-04-06T07:19:21.184Z,6.90
2023-04-06T07:21:53.160Z,6.20
2023-04-06T07:24:22.203Z,6.90
2023-04-06T07:26:55.981Z,6.40
2023-04-06T07:29:24.465Z,7.10
2023-04-06T07:31:53.783Z,6.50
2023-04-06T07:34:22.879Z,8.20
2023-04-06T07:36:53.987Z,7.10
2023-04-06T07:51:18.826Z,16.20
2023-04-06T07:53:49.701Z,6.10
2023-04-06T07:56:19.007Z,6.40
2023-04-06T07:58:56.741Z,4.50
2023-04-06T08:01:28.656Z,4.40
2023-04-06T08:03:57.967Z,4.10
2023-04-06T08:06:26.381Z,5.40
2023-04-06T08:09:00.224Z,3.10
2023-04-06T08:11:29.258Z,5.40
2023-04-06T08:13:59.693Z,6.20
2023-04-06T08:16:29.166Z,4.10
2023-04-06T08:18:58.851Z,4.70
2023-04-06T08:21:28.080Z,5.80
2023-04-06T08:23:56.749Z,6.50
2023-04-06T08:26:26.591Z,7.10
2023-04-06T08:28:55.111Z,5.90
2023-04-06T08:31:23.434Z,6.50
2023-04-06T08:33:53.031Z,9.00
2023-04-06T08:36:24.235Z,18.10
2023-04-06T08:38:53.632Z,14.50
2023-04-06T08:41:22.221Z,20.30
2023-04-06T08:43:55.969Z,14.60
2023-04-06T08:46:31.982Z,14.20
2023-04-06T08:49:03.555Z,13.00
2023-04-06T08:51:33.054Z,11.00
2023-04-06T08:54:03.955Z,13.70
2023-04-06T08:56:35.337Z,9.00
2023-04-06T08:59:04.038Z,6.50
2023-04-06T09:01:36.100Z,7.10
2023-04-06T09:04:10.677Z,12.50
2023-04-06T09:06:39.640Z,8.80
2023-04-06T09:09:08.464Z,7.50
2023-04-06T09:12:07.081Z,6.20
2023-04-06T09:14:41.791Z,6.50
2023-04-06T09:17:10.637Z,7.00
2023-04-06T09:19:49.624Z,8.90
2023-04-06T09:22:19.353Z,5.50
2023-04-06T09:24:50.681Z,4.20
2023-04-06T09:27:40.070Z,8.10
2023-04-06T09:30:17.161Z,3.10
2023-04-06T09:32:57.146Z,3.70
2023-04-06T09:35:28.029Z,6.50
2023-04-06T09:37:57.198Z,8.60
2023-04-06T09:40:26.410Z,7.60
2023-04-06T09:42:59.696Z,4.50
2023-04-06T09:45:29.244Z,3.20
2023-04-06T09:48:01.097Z,3.20
2023-04-06T09:50:34.369Z,2.40
2023-04-06T09:53:02.715Z,1.70
2023-04-06T09:55:41.381Z,1.20
2023-04-06T09:58:20.501Z,1.20
2023-04-06T10:01:04.525Z,1.40
2023-04-06T10:06:05.967Z,2.60
2023-04-06T10:08:34.716Z,1.70
2023-04-06T10:11:04.828Z,2.70
2023-04-06T10:13:34.374Z,2.90
2023-04-06T10:16:10.012Z,3.00
2023-04-06T10:18:53.749Z,2.90
2023-04-06T10:21:25.170Z,3.60
2023-04-06T10:23:59.403Z,2.10
2023-04-06T10:28:56.672Z,2.40
2023-04-06T10:31:29.428Z,4.40
2023-04-06T10:33:59.429Z,4.10
2023-04-06T10:36:34.903Z,5.40
2023-04-06T10:39:05.496Z,3.20
2023-04-06T10:41:44.347Z,8.10
2023-04-06T10:44:23.166Z,3.70
2023-04-06T10:46:58.871Z,2.20
2023-04-06T10:49:27.960Z,2.40
2023-04-06T10:51:57.133Z,2.00
2023-04-06T10:54:27.187Z,2.50
2023-04-06T10:56:57.358Z,1.40
2023-04-06T10:59:29.333Z,1.10
2023-04-06T11:01:58.207Z,1.10
2023-04-06T11:04:28.456Z,2.90
2023-04-06T11:07:04.928Z,2.80
2023-04-06T11:09:34.317Z,3.30
2023-04-06T11:12:02.954Z,4.90
2023-04-06T11:14:31.645Z,6.00
2023-04-06T11:17:10.317Z,6.40
2023-04-06T11:20:11.992Z,5.00
2023-04-06T11:22:53.367Z,6.70
2023-04-06T11:25:22.164Z,6.90
2023-04-06T11:27:51.201Z,6.40
2023-04-06T11:30:36.123Z,6.70
2023-04-06T11:33:12.629Z,8.10
2023-04-06T11:35:47.444Z,7.20
2023-04-06T11:38:23.693Z,5.90
2023-04-06T11:41:02.540Z,3.30
2023-04-06T11:43:32.929Z,3.10
2023-04-06T11:46:04.826Z,1.30
2023-04-06T11:48:34.669Z,3.10
2023-04-06T11:51:05.091Z,1.70
2023-04-06T11:53:34.579Z,2.00
2023-04-06T11:56:02.928Z,4.30
2023-04-06T11:58:33.727Z,1.70
2023-04-06T12:01:06.152Z,1.90
2023-04-06T12:03:36.153Z,3.20
2023-04-06T12:06:05.410Z,2.30
2023-04-06T12:08:37.622Z,0.90
2023-04-06T12:11:06.087Z,0.80
2023-04-06T12:13:40.375Z,3.20
2023-04-06T12:16:09.198Z,2.30
2023-04-06T12:18:41.159Z,2.90
2023-04-06T12:21:11.974Z,2.20
2023-04-06T12:23:40.922Z,3.70
2023-04-06T12:26:13.354Z,5.70
2023-04-06T12:28:46.051Z,6.40
2023-04-06T12:31:18.048Z,1.30
2023-04-06T12:33:50.801Z,3.70
2023-04-06T12:36:25.221Z,6.70
2023-04-06T12:38:57.899Z,0.80
2023-04-06T12:41:26.782Z,3.40
2023-04-06T12:43:55.608Z,3.10
2023-04-06T12:46:24.473Z,5.50
2023-04-06T12:48:57.703Z,4.30
2023-04-06T12:51:32.638Z,2.20
2023-04-06T12:54:01.140Z,2.70
2023-04-06T12:56:30.040Z,2.20
2023-04-06T12:59:00.684Z,2.30
2023-04-06T13:01:30.261Z,2.20
2023-04-06T13:04:00.490Z,2.80
2023-04-06T13:06:35.252Z,4.00
2023-04-06T13:09:05.440Z,2.40
2023-04-06T13:11:34.675Z,2.30
2023-04-06T13:14:03.656Z,1.40
2023-04-06T13:16:35.075Z,3.10
2023-04-06T13:19:03.789Z,1.40
2023-04-06T13:21:34.893Z,1.30
2023-04-06T13:24:03.368Z,4.40
2023-04-06T13:26:31.709Z,3.10
2023-04-06T13:29:02.184Z,1.80
2023-04-06T13:31:30.752Z,10.30
2023-04-06T13:33:59.698Z,8.30
2023-04-06T13:36:28.177Z,9.10
2023-04-06T13:38:58.430Z,5.60
2023-04-06T13:41:27.670Z,6.70
2023-04-06T13:43:56.153Z,6.20
2023-04-06T13:46:26.685Z,6.20
2023-04-06T13:48:56.096Z,8.60
2023-04-06T13:51:24.931Z,3.40
2023-04-06T13:53:54.852Z,5.10
2023-04-06T13:56:23.383Z,3.90
2023-04-06T13:58:55.738Z,7.60
2023-04-06T14:01:24.430Z,5.10
2023-04-06T14:03:53.868Z,6.60
2023-04-06T14:06:31.161Z,6.70
2023-04-06T14:09:01.098Z,10.30
2023-04-06T14:11:33.084Z,4.40
2023-04-06T14:14:02.067Z,6.70
2023-04-06T14:16:30.823Z,7.20
2023-04-06T14:19:00.027Z,8.50
2023-04-06T14:21:28.859Z,5.60
2023-04-06T14:23:59.550Z,4.10
2023-04-06T14:26:28.829Z,9.80
2023-04-06T14:29:03.652Z,9.80
2023-04-06T14:31:32.706Z,8.00
2023-04-06T14:34:02.483Z,6.00
2023-04-06T14:36:37.561Z,4.10
2023-04-06T14:39:09.040Z,7.80
2023-04-06T14:41:38.625Z,2.60
2023-04-06T14:44:18.948Z,4.60
2023-04-06T14:46:47.660Z,3.00
2023-04-06T14:49:16.907Z,7.90
2023-04-06T14:51:45.378Z,8.30
2023-04-06T14:54:15.044Z,5.00
2023-04-06T14:56:44.316Z,4.00
2023-04-06T14:59:13.920Z,4.30
2023-04-06T15:01:43.302Z,9.30
2023-04-06T15:04:15.315Z,7.60
2023-04-06T15:06:44.200Z,2.70
2023-04-06T15:09:14.710Z,10.80
2023-04-06T15:11:43.123Z,14.60
2023-04-06T15:14:12.044Z,4.60
2023-04-06T15:16:48.074Z,7.90
2023-04-06T15:19:18.040Z,7.70
2023-04-06T15:21:46.787Z,7.10
2023-04-06T15:24:41.680Z,8.20
2023-04-06T15:27:12.569Z,6.50
2023-04-06T15:29:41.916Z,5.70
2023-04-06T15:32:10.600Z,9.10
2023-04-06T15:34:42.479Z,11.80
2023-04-06T15:39:20.227Z,10.50
2023-04-06T15:41:49.494Z,4.80
2023-04-06T15:44:19.520Z,7.80
2023-04-06T15:46:48.100Z,9.50
2023-04-06T15:49:20.591Z,8.60
2023-04-06T15:51:49.909Z,2.90
2023-04-06T15:54:21.614Z,7.80
2023-04-06T15:56:51.999Z,8.80
2023-04-06T15:59:25.129Z,9.50
2023-04-06T16:02:03.693Z,5.80
2023-04-06T16:04:42.077Z,5.90
2023-04-06T16:07:11.208Z,13.00
2023-04-06T16:09:43.911Z,7.20
2023-04-06T16:12:12.832Z,4.70
2023-04-06T16:14:43.343Z,10.00
2023-04-06T16:17:14.828Z,7.50
2023-04-06T16:19:55.337Z,6.40
2023-04-06T16:22:29.458Z,3.50
2023-04-06T16:24:59.281Z,5.60
2023-04-06T16:27:30.831Z,7.30
2023-04-06T16:30:06.686Z,4.60
2023-04-06T16:32:52.058Z,5.70
2023-04-06T16:37:55.805Z,8.80
2023-04-06T16:40:32.587Z,10.10
2023-04-06T16:43:01.677Z,10.50
2023-04-06T16:45:32.763Z,5.80
2023-04-06T16:48:04.265Z,4.80
2023-04-06T16:50:42.029Z,8.90
2023-04-06T16:53:18.425Z,4.80
2023-04-06T16:55:58.035Z,9.50
2023-04-06T16:58:26.844Z,11.70
2023-04-06T17:01:00.989Z,9.10
2023-04-06T17:03:31.795Z,11.60
2023-04-06T17:06:11.530Z,4.80
2023-04-06T17:08:42.821Z,5.30
2023-04-06T17:11:21.771Z,3.10
2023-04-06T17:13:59.707Z,4.20
2023-04-06T17:16:29.247Z,11.70
2023-04-06T17:18:58.361Z,9.80
2023-04-06T17:21:28.111Z,4.80
2023-04-06T17:23:56.617Z,6.10
2023-04-06T17:26:25.374Z,6.70
2023-04-06T17:28:54.332Z,6.80
2023-04-06T17:31:23.005Z,4.80
2023-04-06T17:33:56.293Z,4.30
2023-04-06T17:36:24.935Z,7.20
2023-04-06T17:39:00.064Z,4.70
2023-04-06T17:41:35.101Z,10.30
2023-04-06T17:44:03.775Z,12.90
2023-04-06T17:46:33.006Z,12.30
2023-04-06T17:49:02.450Z,8.00
2023-04-06T17:51:32.445Z,7.80
2023-04-06T17:54:04.306Z,7.80
2023-04-06T17:56:34.246Z,7.40
2023-04-06T17:59:11.243Z,14.20
2023-04-06T18:01:45.789Z,14.70
2023-04-06T18:04:15.293Z,6.20
2023-04-06T18:06:44.315Z,10.50
2023-04-06T18:09:19.452Z,13.30
2023-04-06T18:11:49.305Z,14.90
2023-04-06T18:14:18.306Z,14.90
2023-04-06T18:16:48.297Z,13.40
2023-04-06T18:19:22.245Z,11.00
2023-04-06T18:21:50.759Z,8.80
2023-04-06T18:24:37.619Z,10.60
2023-04-06T18:27:07.838Z,13.90
2023-04-06T18:29:39.671Z,10.70
2023-04-06T18:32:08.168Z,13.10
2023-04-06T18:34:36.582Z,10.90
2023-04-06T18:37:06.116Z,8.00
2023-04-06T18:39:34.688Z,9.00
2023-04-06T18:42:03.873Z,10.70
2023-04-06T18:44:32.480Z,10.80
2023-04-06T18:47:01.472Z,13.40
2023-04-06T18:49:33.214Z,15.20
2023-04-06T18:52:03.259Z,8.50
2023-04-06T18:54:31.987Z,7.50
2023-04-06T18:57:02.224Z,12.00
2023-04-06T18:59:31.944Z,7.40
2023-04-06T19:02:02.387Z,9.10
2023-04-06T19:04:31.031Z,10.40
2023-04-06T19:07:02.057Z,11.50
2023-04-06T19:09:31.104Z,12.20
2023-04-06T19:12:03.444Z,8.10
2023-04-06T19:14:33.121Z,10.60
2023-04-06T19:17:12.298Z,9.30
2023-04-06T19:19:41.708Z,18.60
2023-04-06T19:22:11.366Z,14.90
2023-04-06T19:24:42.784Z,13.80
2023-04-06T19:27:11.283Z,9.90
2023-04-06T19:29:48.089Z,9.80
2023-04-06T19:32:20.990Z,16.90
2023-04-06T19:34:55.357Z,14.40
2023-04-06T19:37:31.369Z,9.10
2023-04-06T19:40:12.754Z,9.40
2023-04-06T19:42:44.171Z,9.70
2023-04-06T19:45:15.209Z,7.30
2023-04-06T19:47:46.656Z,6.30
2023-04-06T19:50:21.901Z,5.80
2023-04-06T19:53:04.038Z,6.30
2023-04-06T19:55:38.713Z,10.30
2023-04-06T19:58:09.762Z,10.40
2023-04-06T20:00:40.877Z,20.00
2023-04-06T20:03:12.978Z,27.30
2023-04-06T20:05:43.771Z,16.90
2023-04-06T20:08:17.782Z,14.20
2023-04-06T20:10:48.665Z,14.90
2023-04-06T20:13:29.661Z,9.50
2023-04-06T20:16:08.491Z,14.00
2023-04-06T20:18:47.838Z,10.80
2023-04-06T20:21:21.874Z,16.40
2023-04-06T20:23:56.642Z,20.20
2023-04-06T20:26:29.866Z,12.80
2023-04-06T20:28:58.787Z,9.60
2023-04-06T20:31:33.215Z,7.30
2023-04-06T20:34:02.263Z,9.50
2023-04-06T20:36:35.739Z,9.70
2023-04-06T20:39:05.255Z,8.50
2023-04-06T20:41:39.024Z,13.10
2023-04-06T20:44:07.995Z,9.50
2023-04-06T20:46:37.265Z,12.60
2023-04-06T20:49:06.951Z,10.90
2023-04-06T20:51:35.846Z,8.00
2023-04-06T20:54:05.160Z,8.30
2023-04-06T20:56:35.072Z,7.90
2023-04-06T20:59:05.475Z,10.20
2023-04-06T21:01:34.264Z,5.90
2023-04-06T21:04:05.992Z,9.70
2023-04-06T21:06:34.391Z,7.60
2023-04-06T21:09:02.711Z,6.80
2023-04-06T21:11:31.469Z,6.20
2023-04-06T21:13:59.921Z,9.70
2023-04-06T21:16:34.909Z,6.80
2023-04-06T21:19:03.459Z,5.80
2023-04-06T21:21:31.759Z,11.20
2023-04-06T21:24:01.988Z,9.90
2023-04-06T21:26:31.112Z,13.90
2023-04-06T21:28:59.320Z,10.40
2023-04-06T21:31:29.720Z,9.70
2023-04-06T21:33:59.096Z,9.20
2023-04-06T21:36:27.343Z,13.00
2023-04-06T21:38:56.111Z,13.80
2023-04-06T21:41:24.502Z,18.00
2023-04-06T21:43:53.394Z,14.90
2023-04-06T21:46:22.047Z,10.90
2023-04-06T21:48:51.071Z,11.20
2023-04-06T21:51:20.560Z,14.40
2023-04-06T21:53:49.156Z,14.70
2023-04-06T21:56:24.762Z,17.10
2023-04-06T21:58:55.741Z,15.90
2023-04-06T22:01:23.954Z,13.20
2023-04-06T22:03:56.074Z,15.30
2023-04-06T22:06:26.044Z,15.00
2023-04-06T22:08:54.382Z,16.30
2023-04-06T22:11:26.491Z,17.00
2023-04-06T22:13:54.654Z,15.00
2023-04-06T22:16:23.165Z,35.30
2023-04-06T22:18:55.427Z,27.70
2023-04-06T22:21:23.670Z,17.60
2023-04-06T22:23:52.009Z,17.90
2023-04-06T22:26:21.383Z,16.80
2023-04-06T22:28:49.828Z,15.40
2023-04-06T22:31:18.385Z,20.70
2023-04-06T22:33:48.179Z,23.80
2023-04-06T22:36:17.028Z,20.40
2023-04-06T22:38:49.472Z,23.60
2023-04-06T22:41:17.749Z,32.90
2023-04-06T22:43:46.139Z,33.30
2023-04-06T22:46:14.782Z,35.70
2023-04-06T22:48:43.435Z,42.00
2023-04-06T22:51:11.830Z,35.20
2023-04-06T22:53:40.031Z,33.30
2023-04-06T22:56:08.484Z,39.40
2023-04-06T22:58:37.589Z,25.20
2023-04-06T23:01:08.543Z,16.00
2023-04-06T23:03:38.679Z,14.00
2023-04-06T23:06:07.248Z,11.80
2023-04-06T23:08:35.752Z,13.80
2023-04-06T23:11:04.345Z,13.20
2023-04-06T23:13:36.770Z,12.00
2023-04-06T23:16:05.829Z,7.00
2023-04-06T23:18:35.863Z,9.70
2023-04-06T23:21:07.961Z,11.50
2023-04-06T23:23:37.730Z,9.70
2023-04-06T23:26:06.259Z,9.90
2023-04-06T23:28:34.978Z,9.60
2023-04-06T23:31:03.239Z,12.80
2023-04-06T23:33:32.819Z,13.10
2023-04-06T23:36:01.495Z,10.20
2023-04-06T23:38:31.327Z,10.90
2023-04-06T23:40:59.771Z,7.50
2023-04-06T23:43:27.962Z,7.60
2023-04-06T23:45:57.503Z,14.50
2023-04-06T23:48:26.218Z,6.50
2023-04-06T23:50:54.577Z,7.10
2023-04-06T23:53:24.767Z,7.00
2023-04-06T23:55:53.452Z,6.40
2023-04-06T23:58:21.574Z,7.00
